Time;durP1;ratioP1;P1;durP2;ratioP2;P2;SDS_P1;SDS_P2;PMS_P1;PMS_P2;Temp;Humidity;BMP_temperature;BMP_pressure;BME280_temperature;BME280_humidity;BME280_pressure;Samples;Min_cycle;Max_cycle;Signal;HPM_P1;HPM_P2
2023/07/06 00:01:39;;;;;;;7.32;5.80;;;12.90;99.90;;;;;;5032657;27;89997;-38
2023/07/06 00:04:05;;;;;;;8.20;7.07;;;12.80;99.90;;;;;;5038718;27;90334;-35
2023/07/06 00:06:32;;;;;;;9.65;7.45;;;12.80;99.90;;;;;;5036121;27;89413;-38
2023/07/06 00:08:59;;;;;;;8.18;7.38;;;12.80;99.90;;;;;;5039060;27;90074;-34
2023/07/06 00:11:32;;;;;;;10.10;8.18;;;12.80;99.90;;;;;;5034535;27;88611;-34
2023/07/06 00:13:57;;;;;;;12.93;8.10;;;12.80;99.90;;;;;;5038716;27;90537;-33
2023/07/06 00:16:23;;;;;;;10.77;8.02;;;12.80;99.90;;;;;;5038232;27;90653;-36
2023/07/06 00:18:49;;;;;;;8.25;6.95;;;12.80;99.90;;;;;;5020736;27;88116;-35
2023/07/06 00:21:14;;;;;;;9.50;7.18;;;12.80;99.90;;;;;;5036699;27;88583;-31
2023/07/06 00:23:43;;;;;;;11.50;8.07;;;12.80;99.90;;;;;;5036910;27;90807;-33
2023/07/06 00:26:10;;;;;;;9.50;8.30;;;12.80;99.90;;;;;;5034467;27;92053;-39
2023/07/06 00:28:35;;;;;;;13.32;8.65;;;12.70;99.90;;;;;;5037407;27;90398;-36
2023/07/06 00:31:10;;;;;;;8.98;7.82;;;12.70;99.90;;;;;;5035349;27;89662;-32
2023/07/06 00:33:36;;;;;;;9.00;7.90;;;12.70;99.90;;;;;;5037571;27;90197;-34
2023/07/06 00:36:03;;;;;;;9.38;8.38;;;12.70;99.90;;;;;;5037710;27;90778;-36
2023/07/06 00:38:29;;;;;;;13.35;8.82;;;12.70;99.90;;;;;;5036567;27;88750;-31
2023/07/06 00:40:57;;;;;;;12.90;8.32;;;12.70;99.90;;;;;;5037259;27;89248;-38
2023/07/06 00:43:28;;;;;;;11.63;8.35;;;12.70;99.90;;;;;;5038665;27;90233;-29
2023/07/06 00:45:59;;;;;;;10.27;7.97;;;12.70;99.90;;;;;;5028908;27;88289;-31
2023/07/06 00:48:33;;;;;;;14.25;9.13;;;12.60;99.90;;;;;;5036009;27;90281;-39
2023/07/06 00:51:08;;;;;;;11.13;9.30;;;12.60;99.90;;;;;;5036384;27;88681;-31
2023/07/06 00:53:38;;;;;;;12.00;7.65;;;12.60;99.90;;;;;;5038129;27;90399;-33
2023/07/06 00:56:08;;;;;;;11.75;9.77;;;12.60;99.90;;;;;;5024154;27;90549;-41
2023/07/06 00:58:42;;;;;;;9.45;8.50;;;12.60;99.90;;;;;;5019605;27;89888;-38
2023/07/06 01:01:10;;;;;;;15.15;10.50;;;12.60;99.90;;;;;;5037156;27;88939;-32
2023/07/06 01:03:43;;;;;;;;;;;12.50;99.90;;;;;;5038355;27;91966;-34
2023/07/06 01:06:19;;;;;;;12.25;9.55;;;12.50;99.90;;;;;;5038904;27;89417;-32
2023/07/06 01:08:47;;;;;;;9.52;8.52;;;12.50;99.90;;;;;;5037757;27;89759;-37
2023/07/06 01:11:14;;;;;;;12.55;8.93;;;12.50;99.90;;;;;;5037330;27;89944;-38
2023/07/06 01:13:50;;;;;;;10.77;9.38;;;12.50;99.90;;;;;;5038610;27;90688;-33
2023/07/06 01:16:54;;;;;;;10.75;8.38;;;12.50;99.90;;;;;;5037032;27;90531;-33
2023/07/06 01:19:31;;;;;;;13.55;9.60;;;12.40;99.90;;;;;;5012520;27;89233;-33
2023/07/06 01:22:13;;;;;;;12.15;9.50;;;12.40;99.90;;;;;;5038028;27;89299;-38
2023/07/06 01:24:53;;;;;;;12.15;7.88;;;12.40;99.90;;;;;;5027540;27;90742;-35
2023/07/06 01:27:50;;;;;;;10.60;8.63;;;12.40;99.90;;;;;;5037914;27;90485;-31
2023/07/06 01:30:25;;;;;;;8.73;7.57;;;12.40;99.90;;;;;;5036943;27;89766;-34
2023/07/06 01:33:08;;;;;;;9.65;8.25;;;12.30;99.90;;;;;;5040947;27;90083;-32
2023/07/06 01:35:58;;;;;;;10.75;8.65;;;12.30;99.90;;;;;;5041420;27;90560;-31
2023/07/06 01:38:25;;;;;;;10.13;7.95;;;12.30;99.90;;;;;;5041316;27;90122;-37
2023/07/06 01:40:50;;;;;;;9.48;8.13;;;12.30;99.90;;;;;;5040904;27;89668;-38
2023/07/06 01:43:16;;;;;;;10.70;9.10;;;12.30;99.90;;;;;;5041212;27;89887;-37
2023/07/06 01:45:44;;;;;;;9.88;8.18;;;12.30;99.90;;;;;;5041216;27;90949;-31
2023/07/06 01:48:12;;;;;;;10.20;9.10;;;12.30;99.90;;;;;;5039350;27;89797;-30
2023/07/06 01:51:04;;;;;;;12.13;8.30;;;12.20;99.90;;;;;;5041402;27;89048;-34
2023/07/06 01:53:37;;;;;;;8.43;7.60;;;12.20;99.90;;;;;;5041208;27;88999;-33
2023/07/06 01:56:10;;;;;;;9.60;8.10;;;12.20;99.90;;;;;;5041701;27;90373;-32
2023/07/06 01:58:53;;;;;;;11.40;7.68;;;12.20;99.90;;;;;;5031518;27;88859;-32
2023/07/06 02:01:28;;;;;;;9.93;8.27;;;12.20;99.90;;;;;;5041115;27;89262;-32
2023/07/06 02:03:55;;;;;;;10.23;8.73;;;12.20;99.90;;;;;;5022812;27;87602;-34
2023/07/06 02:06:22;;;;;;;10.05;7.80;;;12.20;99.90;;;;;;5040628;27;91477;-39
2023/07/06 02:08:49;;;;;;;9.95;8.60;;;12.20;99.90;;;;;;5040903;27;90605;-32
2023/07/06 02:11:18;;;;;;;10.85;7.78;;;12.10;99.90;;;;;;5039868;27;90434;-31
2023/07/06 02:13:44;;;;;;;8.98;8.02;;;12.10;99.90;;;;;;5041510;27;87806;-33
2023/07/06 02:16:10;;;;;;;8.93;7.90;;;12.10;99.90;;;;;;5040146;27;90152;-31
2023/07/06 02:18:36;;;;;;;11.82;9.02;;;12.00;99.90;;;;;;5041312;27;89960;-36
2023/07/06 02:21:02;;;;;;;12.20;9.02;;;12.00;99.90;;;;;;5039515;27;89440;-32
2023/07/06 02:23:32;;;;;;;12.55;8.10;;;12.00;99.90;;;;;;5040927;27;89777;-32
2023/07/06 02:25:58;;;;;;;10.52;8.57;;;12.00;99.90;;;;;;5040961;27;91371;-39
2023/07/06 02:28:24;;;;;;;10.75;8.95;;;12.00;99.90;;;;;;5021821;27;91151;-34
2023/07/06 02:30:52;;;;;;;9.57;8.63;;;12.00;99.90;;;;;;5039836;27;89174;-30
2023/07/06 02:33:19;;;;;;;8.98;8.07;;;12.00;99.90;;;;;;5040204;27;89370;-34
2023/07/06 02:35:48;;;;;;;10.50;8.18;;;12.00;99.90;;;;;;5027867;27;90523;-31
2023/07/06 02:38:19;;;;;;;10.57;8.63;;;11.90;99.90;;;;;;5040684;27;90562;-32
2023/07/06 02:40:46;;;;;;;12.30;9.63;;;11.90;99.90;;;;;;5040425;27;89703;-33
2023/07/06 02:43:13;;;;;;;12.38;8.68;;;11.90;99.90;;;;;;5039101;27;90428;-33
2023/07/06 02:45:38;;;;;;;11.50;9.38;;;11.90;99.90;;;;;;5040405;27;89342;-32
2023/07/06 02:48:05;;;;;;;13.10;8.88;;;11.90;99.90;;;;;;5040613;27;90029;-32
2023/07/06 02:50:31;;;;;;;9.52;8.57;;;11.90;99.90;;;;;;5040460;27;89887;-35
2023/07/06 02:52:57;;;;;;;10.90;9.45;;;12.00;99.90;;;;;;5040342;27;90196;-31
2023/07/06 02:55:23;;;;;;;11.30;9.43;;;12.00;99.90;;;;;;5040825;27;90275;-35
2023/07/06 02:57:49;;;;;;;12.52;9.02;;;12.00;99.90;;;;;;5039267;27;90486;-33
2023/07/06 03:00:17;;;;;;;13.13;10.48;;;11.90;99.90;;;;;;5020604;27;90124;-38
2023/07/06 03:02:49;;;;;;;11.73;10.52;;;11.90;99.90;;;;;;5039871;27;88204;-37
2023/07/06 03:05:20;;;;;;;11.00;9.68;;;11.90;99.90;;;;;;5039405;27;89985;-33
2023/07/06 03:07:46;;;;;;;11.65;9.13;;;11.90;99.90;;;;;;5039153;27;90108;-32
2023/07/06 03:10:12;;;;;;;14.95;9.48;;;11.90;99.90;;;;;;5039389;27;89869;-37
2023/07/06 03:12:37;;;;;;;12.68;9.85;;;11.90;99.90;;;;;;5039172;27;87655;-34
2023/07/06 03:15:10;;;;;;;13.93;9.90;;;11.80;99.90;;;;;;5040818;27;90315;-35
2023/07/06 03:17:36;;;;;;;11.38;9.70;;;11.80;99.90;;;;;;5039451;27;89396;-32
2023/07/06 03:20:12;;;;;;;11.43;9.98;;;11.80;99.90;;;;;;5040086;27;90158;-37
2023/07/06 03:22:37;;;;;;;12.13;9.07;;;11.90;99.90;;;;;;5038517;27;89426;-34
2023/07/06 03:25:05;;;;;;;11.52;8.88;;;11.90;99.90;;;;;;5039449;27;90553;-36
2023/07/06 03:27:31;;;;;;;13.85;11.90;;;11.80;99.90;;;;;;5038821;27;89403;-32
2023/07/06 03:29:57;;;;;;;13.15;9.95;;;11.90;99.90;;;;;;5038715;27;89910;-32
2023/07/06 03:32:25;;;;;;;11.90;9.13;;;11.90;99.90;;;;;;5038935;27;89015;-39
2023/07/06 03:34:50;;;;;;;11.10;9.82;;;11.90;99.90;;;;;;5040213;27;90260;-30
2023/07/06 03:37:18;;;;;;;16.48;11.15;;;11.90;99.90;;;;;;5039237;27;89743;-30
2023/07/06 03:39:47;;;;;;;13.13;10.35;;;11.90;99.90;;;;;;5039503;27;91526;-38
2023/07/06 03:42:13;;;;;;;15.77;11.07;;;11.90;99.90;;;;;;5024759;27;88184;-33
2023/07/06 03:44:39;;;;;;;9.90;8.90;;;11.90;99.90;;;;;;5038941;27;90594;-34
2023/07/06 03:47:06;;;;;;;13.32;10.73;;;11.90;99.90;;;;;;5038285;27;90590;-37
2023/07/06 03:49:34;;;;;;;8.75;6.47;;;11.90;99.90;;;;;;5037547;27;91407;-32
2023/07/06 03:52:03;;;;;;;13.83;10.80;;;12.00;99.90;;;;;;5039356;27;90004;-38
2023/07/06 03:54:30;;;;;;;13.07;10.80;;;12.00;99.90;;;;;;5038327;27;89955;-39
2023/07/06 03:56:56;;;;;;;12.63;10.20;;;12.00;99.90;;;;;;5038642;27;89749;-34
2023/07/06 03:59:23;;;;;;;15.73;10.95;;;12.00;99.90;;;;;;5037771;27;89574;-34
2023/07/06 04:01:48;;;;;;;15.50;9.27;;;12.00;99.90;;;;;;5038260;27;88008;-39
2023/07/06 04:04:16;;;;;;;12.10;10.20;;;12.00;99.90;;;;;;5038835;27;90245;-37
2023/07/06 04:06:42;;;;;;;13.53;10.57;;;12.10;99.90;;;;;;5038058;27;89782;-33
2023/07/06 04:09:11;;;;;;;16.95;10.95;;;12.10;99.90;;;;;;5038381;27;88807;-34
2023/07/06 04:11:36;;;;;;;17.83;11.27;;;12.10;99.90;;;;;;5038461;27;90018;-30
2023/07/06 04:14:03;;;;;;;14.32;10.30;;;12.10;99.90;;;;;;5038002;27;89958;-35
2023/07/06 04:16:29;;;;;;;15.85;11.77;;;12.10;99.90;;;;;;5037983;27;90229;-38
2023/07/06 04:18:55;;;;;;;15.13;11.75;;;12.10;99.90;;;;;;5037677;27;89842;-35
2023/07/06 04:21:22;;;;;;;11.65;10.45;;;12.20;99.90;;;;;;5037759;27;89785;-32
2023/07/06 04:23:48;;;;;;;12.35;10.45;;;12.20;99.90;;;;;;5037088;27;90989;-33
2023/07/06 04:26:15;;;;;;;11.73;10.38;;;12.20;99.90;;;;;;5038277;27;89585;-33
2023/07/06 04:28:42;;;;;;;15.25;11.68;;;12.30;99.90;;;;;;5037261;27;89836;-33
2023/07/06 04:31:10;;;;;;;12.77;10.52;;;12.30;99.90;;;;;;5037478;27;89716;-39
2023/07/06 04:33:36;;;;;;;10.45;9.38;;;12.30;99.90;;;;;;5037544;27;90410;-31
2023/07/06 04:36:03;;;;;;;12.60;9.85;;;12.30;99.90;;;;;;5019967;27;92219;-33
2023/07/06 04:38:33;;;;;;;13.80;10.90;;;12.40;99.90;;;;;;5037674;27;90556;-30
2023/07/06 04:40:59;;;;;;;11.25;9.57;;;12.50;99.90;;;;;;5058122;22;89227;-33
2023/07/06 04:43:26;;;;;;;13.48;10.05;;;12.50;99.90;;;;;;4996762;28;89203;-38
2023/07/06 04:45:58;;;;;;;17.05;11.43;;;12.50;99.90;;;;;;4998077;28;90273;-32
2023/07/06 04:48:24;;;;;;;12.88;9.70;;;12.60;99.90;;;;;;4997379;28;89721;-34
2023/07/06 04:50:54;;;;;;;15.27;10.75;;;12.60;99.90;;;;;;4998538;28;89290;-36
2023/07/06 04:53:21;;;;;;;15.88;10.90;;;12.60;99.90;;;;;;5013886;28;90139;-33
2023/07/06 04:55:47;;;;;;;10.35;7.45;;;12.60;99.90;;;;;;5006617;27;88681;-32
2023/07/06 04:58:13;;;;;;;11.98;10.52;;;12.70;99.90;;;;;;4998261;28;89680;-31
2023/07/06 05:00:39;;;;;;;17.30;11.55;;;12.80;99.90;;;;;;4997029;28;88979;-37
2023/07/06 05:03:08;;;;;;;17.13;11.50;;;12.80;99.90;;;;;;4996686;28;90125;-33
2023/07/06 05:05:40;;;;;;;12.40;10.85;;;12.90;99.90;;;;;;4997932;28;90233;-33
2023/07/06 05:08:07;;;;;;;16.10;11.75;;;12.90;99.90;;;;;;4999531;28;90110;-32
2023/07/06 05:10:34;;;;;;;13.05;10.25;;;12.90;99.90;;;;;;5001283;28;89205;-36
2023/07/06 05:13:04;;;;;;;16.13;12.35;;;13.00;99.90;;;;;;5000851;28;90620;-34
2023/07/06 05:15:29;;;;;;;14.05;10.25;;;13.00;99.90;;;;;;5000524;28;89304;-36
2023/07/06 05:17:55;;;;;;;18.27;11.48;;;13.10;99.90;;;;;;5004794;28;88491;-35
2023/07/06 05:20:22;;;;;;;11.57;6.90;;;13.20;99.90;;;;;;5007803;27;90817;-33
2023/07/06 05:22:48;;;;;;;14.20;12.85;;;13.40;99.90;;;;;;5000985;28;92539;-33
2023/07/06 05:25:19;;;;;;;17.75;12.35;;;13.50;99.90;;;;;;4999564;28;90833;-38
2023/07/06 05:27:45;;;;;;;20.88;12.15;;;13.70;99.90;;;;;;5000374;28;90590;-35
2023/07/06 05:30:12;;;;;;;17.35;11.30;;;13.90;99.90;;;;;;4999785;28;88727;-34
2023/07/06 05:32:39;;;;;;;14.68;12.95;;;14.20;99.90;;;;;;5000836;28;90141;-38
2023/07/06 05:35:05;;;;;;;12.82;10.85;;;14.50;99.90;;;;;;4999860;28;89184;-38
2023/07/06 05:37:32;;;;;;;21.45;11.32;;;14.70;99.90;;;;;;5000889;28;89818;-33
2023/07/06 05:39:59;;;;;;;16.17;12.87;;;14.90;99.90;;;;;;5000597;28;89412;-36
2023/07/06 05:42:25;;;;;;;14.48;11.63;;;15.00;99.90;;;;;;4999879;28;90316;-35
2023/07/06 05:44:51;;;;;;;16.42;11.25;;;15.20;99.90;;;;;;5000088;28;89904;-36
2023/07/06 05:47:17;;;;;;;18.35;12.90;;;15.50;99.90;;;;;;5000599;28;88872;-37
2023/07/06 05:49:42;;;;;;;15.80;10.40;;;15.60;99.90;;;;;;5001409;28;89364;-37
2023/07/06 05:52:08;;;;;;;15.13;12.15;;;15.80;99.90;;;;;;4998521;28;90752;-33
2023/07/06 05:54:34;;;;;;;11.38;9.73;;;16.00;99.90;;;;;;5012800;28;90906;-36
2023/07/06 05:57:02;;;;;;;16.65;11.38;;;16.10;99.90;;;;;;4987653;28;90127;-36
2023/07/06 05:59:29;;;;;;;15.73;11.68;;;16.40;99.90;;;;;;4998223;28;89342;-33
2023/07/06 06:01:56;;;;;;;16.50;11.45;;;16.60;99.90;;;;;;4999569;28;89869;-31
2023/07/06 06:04:21;;;;;;;16.58;12.55;;;16.70;99.90;;;;;;4999326;28;89608;-35
2023/07/06 06:06:49;;;;;;;13.38;9.77;;;16.70;99.90;;;;;;5000688;28;90543;-31
2023/07/06 06:09:15;;;;;;;16.85;10.75;;;16.90;99.90;;;;;;4998297;28;88842;-36
2023/07/06 06:11:41;;;;;;;15.02;12.57;;;17.20;99.90;;;;;;4999049;28;90141;-35
2023/07/06 06:14:07;;;;;;;11.40;9.57;;;17.10;99.90;;;;;;4999084;28;89165;-33
2023/07/06 06:16:33;;;;;;;14.27;10.45;;;17.40;99.90;;;;;;5000622;28;92317;-33
2023/07/06 06:19:01;;;;;;;14.90;10.55;;;17.80;99.90;;;;;;4998632;28;89071;-32
2023/07/06 06:21:29;;;;;;;16.70;10.80;;;17.60;99.90;;;;;;4999558;28;89364;-36
2023/07/06 06:23:59;;;;;;;13.90;9.85;;;17.90;99.90;;;;;;4999763;28;90429;-33
2023/07/06 06:26:25;;;;;;;11.02;9.75;;;18.00;99.90;;;;;;5000828;28;88972;-34
2023/07/06 06:28:51;;;;;;;12.50;9.38;;;18.10;99.90;;;;;;4999987;28;88594;-35
2023/07/06 06:31:17;;;;;;;12.65;10.13;;;18.10;99.90;;;;;;4997665;28;89513;-37
2023/07/06 06:33:46;;;;;;;12.93;7.43;;;18.00;99.90;;;;;;4996605;28;89490;-37
2023/07/06 06:36:17;;;;;;;13.98;10.02;;;17.90;99.90;;;;;;4998314;28;89773;-34
2023/07/06 06:38:43;;;;;;;13.48;8.90;;;18.00;99.90;;;;;;5000413;28;88824;-33
2023/07/06 06:41:10;;;;;;;11.02;7.28;;;17.90;99.90;;;;;;4998751;27;89988;-31
2023/07/06 06:43:40;;;;;;;14.23;9.23;;;18.00;99.90;;;;;;4998116;28;90533;-36
2023/07/06 06:46:10;;;;;;;14.48;9.25;;;18.00;99.90;;;;;;4997479;28;90105;-32
2023/07/06 06:48:36;;;;;;;15.05;9.60;;;18.20;99.90;;;;;;4989519;28;89814;-35
2023/07/06 06:51:04;;;;;;;14.23;8.85;;;18.20;99.90;;;;;;4997444;28;90442;-32
2023/07/06 06:53:30;;;;;;;12.82;9.15;;;18.60;99.90;;;;;;5002629;28;90682;-30
2023/07/06 06:55:57;;;;;;;9.90;8.90;;;18.90;99.90;;;;;;5017690;27;89577;-32
2023/07/06 06:58:24;;;;;;;14.35;10.82;;;19.00;99.90;;;;;;4999413;27;89198;-31
2023/07/06 07:01:00;;;;;;;16.00;9.88;;;19.30;99.90;;;;;;4996641;28;91458;-31
2023/07/06 07:03:29;;;;;;;13.95;9.68;;;19.40;99.90;;;;;;4997139;28;90566;-30
2023/07/06 07:06:00;;;;;;;18.55;9.90;;;19.60;99.90;;;;;;4997416;28;90427;-33
2023/07/06 07:08:27;;;;;;;15.35;10.85;;;19.90;99.90;;;;;;4998737;28;90428;-32
2023/07/06 07:10:57;;;;;;;14.63;9.45;;;19.80;99.90;;;;;;4996059;28;90082;-33
2023/07/06 07:13:24;;;;;;;14.65;9.90;;;20.20;99.90;;;;;;4998052;28;91809;-32
2023/07/06 07:15:49;;;;;;;18.80;11.27;;;19.60;99.90;;;;;;4999244;28;89514;-30
2023/07/06 07:18:15;;;;;;;17.15;9.43;;;19.40;99.90;;;;;;4999623;28;88298;-33
2023/07/06 07:20:43;;;;;;;13.45;9.88;;;19.40;99.90;;;;;;4998929;28;90603;-31
2023/07/06 07:23:09;;;;;;;;;;;19.40;99.90;;;;;;4998860;28;90482;-32
2023/07/06 07:25:38;;;;;;;11.10;9.23;;;19.90;99.90;;;;;;4999905;28;89142;-32
2023/07/06 07:28:05;;;;;;;13.23;9.20;;;20.20;99.90;;;;;;4998534;28;88927;-37
2023/07/06 07:30:31;;;;;;;14.93;10.35;;;20.20;99.90;;;;;;5002000;28;91192;-34
2023/07/06 07:32:57;;;;;;;12.32;9.90;;;20.30;99.90;;;;;;5006103;28;90948;-33
2023/07/06 07:35:23;;;;;;;20.90;11.63;;;20.40;99.90;;;;;;4997961;28;88989;-34
2023/07/06 07:37:50;;;;;;;16.98;11.13;;;20.30;99.90;;;;;;4998751;28;88517;-32
2023/07/06 07:40:19;;;;;;;19.33;10.47;;;20.10;99.90;;;;;;4996299;28;90208;-32
2023/07/06 07:42:46;;;;;;;15.40;10.63;;;20.20;99.90;;;;;;4999323;28;90242;-33
2023/07/06 07:45:13;;;;;;;10.52;9.52;;;20.40;99.90;;;;;;4996737;28;89535;-34
2023/07/06 07:47:39;;;;;;;15.65;10.18;;;20.30;99.90;;;;;;4998345;28;88737;-37
2023/07/06 07:50:06;;;;;;;15.95;10.63;;;20.20;99.90;;;;;;4998485;28;90663;-34
2023/07/06 07:52:34;;;;;;;16.40;12.13;;;20.10;99.90;;;;;;4997770;28;90559;-32
2023/07/06 07:55:00;;;;;;;10.40;9.30;;;19.60;99.90;;;;;;5009367;28;90568;-33
2023/07/06 07:57:27;;;;;;;15.27;10.65;;;19.50;99.90;;;;;;4998995;28;90245;-31
2023/07/06 07:59:52;;;;;;;14.45;9.73;;;19.60;99.90;;;;;;4998293;28;91164;-33
2023/07/06 08:02:18;;;;;;;14.77;10.75;;;19.30;99.90;;;;;;4998639;28;89867;-33
2023/07/06 08:04:44;;;;;;;13.60;11.38;;;19.10;99.90;;;;;;4998246;28;89429;-34
2023/07/06 08:07:11;;;;;;;12.43;9.82;;;19.40;99.90;;;;;;4999271;28;88185;-32
2023/07/06 08:09:37;;;;;;;15.30;12.13;;;19.40;99.90;;;;;;4998338;28;89680;-32
2023/07/06 08:12:03;;;;;;;15.98;11.35;;;19.10;99.90;;;;;;5009118;28;90105;-31
2023/07/06 08:14:38;;;;;;;11.50;10.30;;;19.10;99.90;;;;;;4997688;28;91479;-33
2023/07/06 08:17:05;;;;;;;12.05;10.27;;;19.40;99.90;;;;;;4998442;28;90607;-32
2023/07/06 08:19:36;;;;;;;17.40;10.30;;;19.70;99.90;;;;;;4997723;28;92195;-32
2023/07/06 08:22:03;;;;;;;15.10;9.05;;;20.10;99.90;;;;;;4997583;28;90828;-32
2023/07/06 08:24:29;;;;;;;11.07;9.48;;;20.40;99.90;;;;;;4997646;28;89509;-34
2023/07/06 08:26:55;;;;;;;12.10;10.23;;;20.60;99.90;;;;;;4999166;28;89790;-30
2023/07/06 08:29:22;;;;;;;27.52;10.80;;;20.60;99.90;;;;;;4998225;28;90230;-31
2023/07/06 08:31:49;;;;;;;10.80;9.05;;;20.70;99.90;;;;;;4997551;28;90175;-34
2023/07/06 08:34:16;;;;;;;14.02;9.07;;;20.80;99.90;;;;;;4998051;28;89784;-36
2023/07/06 08:36:43;;;;;;;10.33;7.90;;;19.90;99.90;;;;;;4998515;28;88315;-31
2023/07/06 08:39:09;;;;;;;13.68;6.88;;;20.20;99.90;;;;;;4998174;28;91733;-30
2023/07/06 08:41:39;;;;;;;9.32;8.02;;;20.60;99.90;;;;;;4996053;28;90392;-33
2023/07/06 08:44:09;;;;;;;9.38;7.70;;;20.90;99.90;;;;;;4998903;28;90188;-33
2023/07/06 08:46:48;;;;;;;8.80;7.95;;;21.20;99.90;;;;;;4997979;28;88979;-35
2023/07/06 08:49:32;;;;;;;9.63;7.05;;;21.20;99.90;;;;;;4997243;28;90365;-32
2023/07/06 08:52:03;;;;;;;8.68;6.35;;;21.40;99.90;;;;;;4998612;28;89572;-33
2023/07/06 08:54:30;;;;;;;14.70;7.07;;;21.40;99.90;;;;;;5009412;28;90273;-37
2023/07/06 08:56:57;;;;;;;8.53;6.23;;;21.30;99.90;;;;;;4998773;28;89682;-36
2023/07/06 08:59:45;;;;;;;13.30;8.93;;;21.80;99.90;;;;;;4997991;28;89870;-35
2023/07/06 09:02:20;;;;;;;11.00;8.13;;;21.90;99.90;;;;;;4990187;28;89721;-31
2023/07/06 09:04:48;;;;;;;9.88;6.95;;;22.10;99.90;;;;;;5000065;28;90456;-36
2023/07/06 09:07:22;;;;;;;8.13;5.78;;;21.80;99.90;;;;;;4997795;28;89830;-34
2023/07/06 09:09:48;;;;;;;12.38;7.40;;;21.60;99.90;;;;;;4997760;28;90455;-31
2023/07/06 09:12:19;;;;;;;9.18;6.60;;;21.50;99.90;;;;;;4998249;28;89546;-32
2023/07/06 09:14:51;;;;;;;10.63;7.63;;;21.50;99.90;;;;;;5002600;28;90037;-31
2023/07/06 09:17:17;;;;;;;7.97;6.43;;;21.40;99.90;;;;;;5002516;28;90136;-31
2023/07/06 09:19:44;;;;;;;8.70;7.47;;;21.60;99.90;;;;;;4998368;28;90433;-32
2023/07/06 09:22:10;;;;;;;7.45;6.75;;;21.70;99.90;;;;;;4997773;28;89871;-32
2023/07/06 09:24:37;;;;;;;5.75;5.15;;;21.40;99.90;;;;;;4997731;28;89451;-32
2023/07/06 09:27:16;;;;;;;13.18;6.43;;;21.50;99.90;;;;;;5009024;28;88226;-32
2023/07/06 09:29:41;;;;;;;6.30;5.72;;;21.70;99.90;;;;;;4998658;28;90629;-31
2023/07/06 09:32:10;;;;;;;13.10;7.00;;;21.90;99.90;;;;;;4996410;28;90902;-36
2023/07/06 09:34:37;;;;;;;9.27;6.53;;;21.50;99.90;;;;;;4997435;28;90065;-33
2023/07/06 09:37:03;;;;;;;6.53;5.87;;;21.60;99.90;;;;;;4996059;28;88901;-35
2023/07/06 09:39:29;;;;;;;10.60;7.32;;;21.70;99.90;;;;;;4997332;28;89925;-34
2023/07/06 09:41:57;;;;;;;8.25;7.07;;;21.00;99.90;;;;;;4996392;28;89885;-36
2023/07/06 09:44:31;;;;;;;9.30;7.05;;;20.80;99.90;;;;;;4996092;28;88723;-35
2023/07/06 09:46:59;;;;;;;14.52;8.63;;;20.70;99.90;;;;;;4995094;28;90541;-31
2023/07/06 09:49:35;;;;;;;;;;;20.60;99.90;;;;;;4995748;28;90435;-31
2023/07/06 09:52:09;;;;;;;10.48;6.63;;;20.70;99.90;;;;;;4996579;28;89654;-34
2023/07/06 09:54:46;;;;;;;7.18;5.97;;;20.70;99.90;;;;;;5012845;28;90756;-33
2023/07/06 09:57:15;;;;;;;8.67;6.63;;;20.80;99.90;;;;;;4998224;28;88976;-33
2023/07/06 09:59:48;;;;;;;8.20;6.60;;;20.70;99.90;;;;;;4998174;28;90261;-36
2023/07/06 10:02:56;;;;;;;13.85;6.55;;;20.70;99.90;;;;;;4996918;28;89763;-37
2023/07/06 10:05:48;;;;;;;5.40;4.88;;;20.80;99.90;;;;;;4988816;28;89231;-36
2023/07/06 10:08:23;;;;;;;9.98;4.78;;;20.90;99.90;;;;;;4969052;28;89786;-33
2023/07/06 10:11:04;;;;;;;7.65;5.07;;;20.80;99.90;;;;;;4998419;28;90344;-32
2023/07/06 10:13:51;;;;;;;7.60;4.65;;;20.60;99.90;;;;;;4998010;28;89698;-32
2023/07/06 10:16:29;;;;;;;7.20;3.80;;;20.70;99.90;;;;;;4998811;28;89115;-33
2023/07/06 10:19:14;;;;;;;11.75;5.88;;;21.00;99.90;;;;;;4998983;28;88479;-36
2023/07/06 10:21:48;;;;;;;6.75;4.95;;;21.30;99.90;;;;;;4997719;28;91318;-31
2023/07/06 10:24:16;;;;;;;6.75;4.75;;;21.50;99.90;;;;;;4995398;28;89872;-33
2023/07/06 10:26:49;;;;;;;4.53;4.13;;;21.50;99.90;;;;;;4998293;28;89755;-35
2023/07/06 10:29:21;;;;;;;7.60;5.50;;;21.40;99.90;;;;;;4997318;28;89321;-35
2023/07/06 10:31:54;;;;;;;5.25;4.57;;;21.20;99.90;;;;;;4997474;28;90116;-33
2023/07/06 10:34:35;;;;;;;7.25;4.95;;;21.50;99.90;;;;;;4998555;28;89206;-34
2023/07/06 10:37:03;;;;;;;4.95;4.45;;;21.60;99.90;;;;;;4997977;28;90280;-35
2023/07/06 10:39:29;;;;;;;4.30;4.00;;;21.40;99.90;;;;;;4998350;28;88364;-37
2023/07/06 10:42:12;;;;;;;4.68;3.80;;;21.20;99.90;;;;;;4997339;28;90422;-38
2023/07/06 10:44:43;;;;;;;5.70;3.47;;;21.20;99.90;;;;;;4997732;28;89837;-36
2023/07/06 10:47:39;;;;;;;4.88;4.45;;;20.90;99.90;;;;;;4992969;28;91501;-38
2023/07/06 10:50:08;;;;;;;6.53;3.30;;;20.60;99.90;;;;;;4995239;28;89024;-34
2023/07/06 10:52:49;;;;;;;8.50;4.78;;;20.50;99.90;;;;;;4997339;28;90146;-34
2023/07/06 10:55:22;;;;;;;5.95;4.05;;;20.60;99.90;;;;;;5011744;28;89643;-35
2023/07/06 10:57:59;;;;;;;4.07;3.67;;;20.50;99.90;;;;;;4997493;28;89933;-33
2023/07/06 11:00:37;;;;;;;4.05;3.65;;;20.50;99.90;;;;;;4997120;28;88407;-37
2023/07/06 11:03:05;;;;;;;7.50;3.33;;;20.90;99.90;;;;;;4996891;28;90228;-37
2023/07/06 11:05:36;;;;;;;4.85;4.28;;;21.20;99.90;;;;;;4995132;28;89998;-32
2023/07/06 11:08:10;;;;;;;4.53;3.55;;;21.00;99.90;;;;;;4998729;28;89403;-35
2023/07/06 11:10:39;;;;;;;7.43;3.40;;;21.00;99.90;;;;;;4996868;28;89852;-37
2023/07/06 11:13:04;;;;;;;10.43;3.47;;;21.00;99.90;;;;;;4996303;28;90616;-36
2023/07/06 11:15:48;;;;;;;3.60;2.58;;;20.80;99.90;;;;;;4996504;28;90485;-35
2023/07/06 11:18:32;;;;;;;4.07;3.17;;;21.00;99.90;;;;;;4988553;28;90864;-38
2023/07/06 11:21:17;;;;;;;6.47;2.67;;;21.00;99.90;;;;;;4991535;28;89679;-32
2023/07/06 11:23:53;;;;;;;4.43;2.80;;;21.20;99.90;;;;;;4996276;28;90186;-34
2023/07/06 11:26:54;;;;;;;6.57;2.78;;;21.50;99.90;;;;;;4996930;28;90449;-33
2023/07/06 11:29:24;;;;;;;3.67;2.58;;;21.40;99.90;;;;;;4987770;28;90289;-34
2023/07/06 11:32:20;;;;;;;4.60;2.70;;;21.30;99.90;;;;;;4997562;28;88688;-34
2023/07/06 11:35:09;;;;;;;3.15;2.85;;;21.20;99.90;;;;;;4996973;28;91400;-32
2023/07/06 11:38:12;;;;;;;3.72;2.47;;;21.10;99.90;;;;;;4992517;28;89641;-34
2023/07/06 11:41:00;;;;;;;4.00;2.40;;;21.10;99.90;;;;;;4996534;28;89281;-34
2023/07/06 11:43:45;;;;;;;4.25;2.10;;;21.10;99.90;;;;;;4995658;28;90572;-37
2023/07/06 11:46:29;;;;;;;3.60;2.38;;;21.10;99.90;;;;;;4997980;28;90039;-35
2023/07/06 11:49:21;;;;;;;3.97;2.33;;;21.20;99.90;;;;;;4995674;28;90478;-33
2023/07/06 11:51:49;;;;;;;2.60;2.40;;;21.40;99.90;;;;;;4982407;28;88800;-32
2023/07/06 11:54:39;;;;;;;;;;;21.40;99.90;;;;;;5007949;28;88041;-33
2023/07/06 11:59:55;;;;;;;7.35;2.90;;;21.70;99.90;;;;;;4995119;28;88853;-36
2023/07/06 12:02:27;;;;;;;4.53;2.33;;;21.70;98.10;;;;;;4996245;28;89891;-35
2023/07/06 12:04:52;;;;;;;7.05;2.40;;;22.00;99.90;;;;;;4996072;28;89114;-33
2023/07/06 12:07:29;;;;;;;3.40;1.90;;;22.10;99.90;;;;;;4995299;28;90286;-33
2023/07/06 12:10:00;;;;;;;3.00;1.70;;;22.20;99.30;;;;;;4996049;28;91027;-34
2023/07/06 12:12:26;;;;;;;4.82;2.58;;;22.40;99.90;;;;;;4995719;28;90507;-34
2023/07/06 12:14:54;;;;;;;4.38;2.90;;;22.50;99.80;;;;;;5008726;28;89112;-34
2023/07/06 12:17:19;;;;;;;;;;;22.20;99.30;;;;;;4995695;28;90717;-34
2023/07/06 12:19:45;;;;;;;4.15;2.20;;;22.20;99.90;;;;;;4997382;28;89364;-35
2023/07/06 12:22:17;;;;;;;2.80;2.13;;;22.20;99.90;;;;;;4996662;28;90194;-34
2023/07/06 12:24:43;;;;;;;8.10;2.42;;;22.20;99.60;;;;;;4996239;28;88731;-37
2023/07/06 12:27:15;;;;;;;5.15;2.90;;;21.70;97.80;;;;;;4996152;28;90858;-33
2023/07/06 12:29:41;;;;;;;5.70;2.72;;;21.80;99.90;;;;;;4996034;28;89348;-36
2023/07/06 12:32:20;;;;;;;2.63;2.42;;;21.70;98.30;;;;;;4995751;28;90214;-33
2023/07/06 12:34:49;;;;;;;11.05;3.45;;;21.90;99.90;;;;;;4996311;28;91769;-34
2023/07/06 12:37:18;;;;;;;7.95;2.60;;;22.00;99.80;;;;;;4994845;28;90436;-36
2023/07/06 12:39:48;;;;;;;3.03;2.00;;;22.00;98.70;;;;;;4995820;28;89570;-37
2023/07/06 12:42:17;;;;;;;3.35;2.05;;;22.10;99.00;;;;;;4982919;28;89700;-33
2023/07/06 12:44:44;;;;;;;3.03;2.42;;;22.20;95.90;;;;;;4995822;28;88937;-37
2023/07/06 12:47:40;;;;;;;2.90;2.60;;;22.30;96.40;;;;;;4995420;28;90549;-34
2023/07/06 12:50:14;;;;;;;4.78;2.13;;;22.00;94.00;;;;;;4996169;28;89344;-38
2023/07/06 12:52:39;;;;;;;3.08;2.60;;;21.90;93.20;;;;;;4996070;28;88987;-36
2023/07/06 12:55:12;;;;;;;5.68;2.15;;;21.80;94.60;;;;;;5008161;28;88202;-32
2023/07/06 12:57:38;;;;;;;3.38;1.80;;;21.90;92.70;;;;;;4996393;28;89498;-33